Shanksville, PA (15560)

5:06 AM EDT on September 03, 2015 (GMT -0400)
Indian Lake | | Change Station
CLOSE
Current Station
Personal Weather Station
Location: Central City, PA
Elevation: 2297 ft
Nearby Weather Stations

Elev 2297 ft 40.05 °N, 78.87 °W | Updated 1 minute ago

Clear
Clear
61.7 °F
Feels Like 61.7 °F
N
0.0
Wind Variable Wind from WSW
Gusts 0.0 mph

Today
High -- | Low -- °F
--% Chance of Precip.
Yesterday
High -- | Low -- °F
Precip. -- in
6:45 AM 7:44 PM
Waning Gibbous, 72% visible
Pressure 29.98 in
Visibility 6.0 miles
Clouds Clear
Dew Point 61 °F
Humidity 98%
Rainfall 0.00 in
Snow Depth Not available.
UV 0.0 out of 12
Pollen 10.00 out of 12
Air Quality Not available.
Flu Activity Not available.
METAR KJST 030854Z AUTO 24006KT 6SM BR CLR 19/17 A3002 RMK AO2 SLP151 T01890167 56008
Pressure 29.98 in
Visibility 6.0 miles
Clouds Clear
Dew Point 61 °F
Humidity 98%
Rainfall 0.00 in
Snow Depth Not available.
UV 0.0 out of 12
Pollen 10.00 out of 12
Air Quality Not available.
Flu Activity Not available.
METAR KJST 030854Z AUTO 24006KT 6SM BR CLR 19/17 A3002 RMK AO2 SLP151 T01890167 56008

10-Day Weather Forecast

×

Almanac

Astronomy

Sep. 03, 2015 Rise Set
Actual Time
Civil Twilight
Nautical Twilight
Astronomical Twilight
Moon
Length of Visible Light
Length of Day
Tomorrow will be .
, % of the Moon is Illuminated

Today's Extremes

State Highs State Lows

Community

WunderPhotos

Upload Photos

1,851,922 photos uploaded!

WunderBlogs® & News

Nearby

Air Quality

  Air Quality AQ Index Pollutant
Not available.

Snow Depth

Station Depth Elevation

Earthquake Activity

City Distance Mag. Time & Date
Minimum magnitude displayed is 2.5.

Coastal Water Temperatures

Place Temperature

Stations

Nearby Weather Stations

Station Location Temp. Windchill Dew Point Humidity Wind Precip. Elev Updated Type